sensor_id;sensor_type;location;lat;lon;timestamp;P1;durP1;ratioP1;P2;durP2;ratioP2
20986;SDS011;10652;50.306;8.570;2023-06-14T00:03:54;5.88;;;4.03;;
20986;SDS011;10652;50.306;8.570;2023-06-14T00:07:57;4.63;;;4.05;;
20986;SDS011;10652;50.306;8.570;2023-06-14T00:12:02;4.32;;;3.92;;
20986;SDS011;10652;50.306;8.570;2023-06-14T00:16:05;7.43;;;4.60;;
20986;SDS011;10652;50.306;8.570;2023-06-14T00:20:07;4.95;;;3.95;;
20986;SDS011;10652;50.306;8.570;2023-06-14T00:24:11;6.30;;;4.13;;
20986;SDS011;10652;50.306;8.570;2023-06-14T00:28:13;5.05;;;3.95;;
20986;SDS011;10652;50.306;8.570;2023-06-14T00:32:18;4.93;;;3.80;;
20986;SDS011;10652;50.306;8.570;2023-06-14T00:36:20;4.85;;;3.90;;
20986;SDS011;10652;50.306;8.570;2023-06-14T00:40:23;5.03;;;4.50;;
20986;SDS011;10652;50.306;8.570;2023-06-14T00:44:25;5.57;;;3.70;;
20986;SDS011;10652;50.306;8.570;2023-06-14T00:48:27;6.32;;;4.40;;
20986;SDS011;10652;50.306;8.570;2023-06-14T00:52:30;6.50;;;4.13;;
20986;SDS011;10652;50.306;8.570;2023-06-14T00:56:37;5.13;;;3.90;;
20986;SDS011;10652;50.306;8.570;2023-06-14T01:00:40;4.85;;;4.30;;
20986;SDS011;10652;50.306;8.570;2023-06-14T01:04:43;4.88;;;3.80;;
20986;SDS011;10652;50.306;8.570;2023-06-14T01:13:21;6.38;;;4.40;;
20986;SDS011;10652;50.306;8.570;2023-06-14T01:17:25;4.75;;;3.90;;
20986;SDS011;10652;50.306;8.570;2023-06-14T01:21:28;5.03;;;4.13;;
20986;SDS011;10652;50.306;8.570;2023-06-14T01:25:31;4.70;;;4.20;;
20986;SDS011;10652;50.306;8.570;2023-06-14T01:29:33;10.05;;;6.70;;
20986;SDS011;10652;50.306;8.570;2023-06-14T01:33:38;11.73;;;7.25;;
20986;SDS011;10652;50.306;8.570;2023-06-14T01:37:40;11.40;;;6.40;;
20986;SDS011;10652;50.306;8.570;2023-06-14T01:41:43;10.02;;;4.80;;
20986;SDS011;10652;50.306;8.570;2023-06-14T01:45:47;5.45;;;4.25;;
20986;SDS011;10652;50.306;8.570;2023-06-14T01:49:51;4.90;;;4.22;;
20986;SDS011;10652;50.306;8.570;2023-06-14T01:53:53;4.25;;;3.83;;
20986;SDS011;10652;50.306;8.570;2023-06-14T01:57:55;5.38;;;3.83;;
20986;SDS011;10652;50.306;8.570;2023-06-14T02:01:57;4.45;;;3.90;;
20986;SDS011;10652;50.306;8.570;2023-06-14T02:05:59;6.50;;;4.15;;
20986;SDS011;10652;50.306;8.570;2023-06-14T02:10:02;6.47;;;4.70;;
20986;SDS011;10652;50.306;8.570;2023-06-14T02:14:05;5.75;;;4.55;;
20986;SDS011;10652;50.306;8.570;2023-06-14T02:18:08;5.47;;;4.18;;
20986;SDS011;10652;50.306;8.570;2023-06-14T02:22:11;4.70;;;4.10;;
20986;SDS011;10652;50.306;8.570;2023-06-14T02:26:13;4.43;;;4.00;;
20986;SDS011;10652;50.306;8.570;2023-06-14T02:30:16;6.13;;;4.15;;
20986;SDS011;10652;50.306;8.570;2023-06-14T02:34:18;5.90;;;4.50;;
20986;SDS011;10652;50.306;8.570;2023-06-14T02:38:22;7.25;;;4.88;;
20986;SDS011;10652;50.306;8.570;2023-06-14T02:42:24;5.03;;;4.32;;
20986;SDS011;10652;50.306;8.570;2023-06-14T02:46:26;5.93;;;4.43;;
20986;SDS011;10652;50.306;8.570;2023-06-14T02:50:28;5.47;;;4.32;;
20986;SDS011;10652;50.306;8.570;2023-06-14T02:54:32;6.13;;;4.40;;
20986;SDS011;10652;50.306;8.570;2023-06-14T02:58:35;4.22;;;3.83;;
20986;SDS011;10652;50.306;8.570;2023-06-14T03:02:38;7.63;;;4.18;;
20986;SDS011;10652;50.306;8.570;2023-06-14T03:06:41;4.05;;;3.65;;
20986;SDS011;10652;50.306;8.570;2023-06-14T03:10:47;6.37;;;4.03;;
20986;SDS011;10652;50.306;8.570;2023-06-14T03:14:50;6.32;;;4.05;;
20986;SDS011;10652;50.306;8.570;2023-06-14T03:18:56;5.85;;;3.92;;
20986;SDS011;10652;50.306;8.570;2023-06-14T03:23:01;5.70;;;3.92;;
20986;SDS011;10652;50.306;8.570;2023-06-14T03:27:04;6.53;;;3.80;;
20986;SDS011;10652;50.306;8.570;2023-06-14T03:31:07;7.57;;;4.28;;
20986;SDS011;10652;50.306;8.570;2023-06-14T03:35:10;4.13;;;3.72;;
20986;SDS011;10652;50.306;8.570;2023-06-14T03:39:19;5.50;;;3.90;;
20986;SDS011;10652;50.306;8.570;2023-06-14T03:43:22;6.78;;;3.95;;
20986;SDS011;10652;50.306;8.570;2023-06-14T03:47:24;4.68;;;3.65;;
20986;SDS011;10652;50.306;8.570;2023-06-14T03:51:27;5.80;;;3.63;;
20986;SDS011;10652;50.306;8.570;2023-06-14T03:55:30;4.30;;;3.60;;
20986;SDS011;10652;50.306;8.570;2023-06-14T03:59:39;5.68;;;3.78;;
20986;SDS011;10652;50.306;8.570;2023-06-14T04:03:41;4.63;;;3.90;;
20986;SDS011;10652;50.306;8.570;2023-06-14T04:07:43;5.15;;;4.13;;
20986;SDS011;10652;50.306;8.570;2023-06-14T04:11:51;6.80;;;3.93;;
20986;SDS011;10652;50.306;8.570;2023-06-14T04:15:58;5.07;;;3.80;;
20986;SDS011;10652;50.306;8.570;2023-06-14T04:20:06;4.78;;;4.20;;
20986;SDS011;10652;50.306;8.570;2023-06-14T04:24:11;5.95;;;4.07;;
20986;SDS011;10652;50.306;8.570;2023-06-14T04:28:16;5.43;;;3.90;;
20986;SDS011;10652;50.306;8.570;2023-06-14T04:32:20;6.03;;;4.38;;
20986;SDS011;10652;50.306;8.570;2023-06-14T04:36:23;6.28;;;4.00;;
20986;SDS011;10652;50.306;8.570;2023-06-14T04:40:26;7.15;;;4.05;;
20986;SDS011;10652;50.306;8.570;2023-06-14T04:44:28;6.10;;;3.97;;
20986;SDS011;10652;50.306;8.570;2023-06-14T04:48:37;8.48;;;3.90;;
20986;SDS011;10652;50.306;8.570;2023-06-14T04:52:44;5.78;;;4.00;;
20986;SDS011;10652;50.306;8.570;2023-06-14T04:56:46;4.45;;;3.30;;
20986;SDS011;10652;50.306;8.570;2023-06-14T05:00:48;4.30;;;3.20;;
20986;SDS011;10652;50.306;8.570;2023-06-14T05:04:51;5.05;;;3.10;;
20986;SDS011;10652;50.306;8.570;2023-06-14T05:08:54;3.92;;;2.70;;
20986;SDS011;10652;50.306;8.570;2023-06-14T05:12:56;3.78;;;2.90;;
20986;SDS011;10652;50.306;8.570;2023-06-14T05:16:59;5.70;;;2.78;;
20986;SDS011;10652;50.306;8.570;2023-06-14T05:21:01;4.25;;;3.03;;
20986;SDS011;10652;50.306;8.570;2023-06-14T05:25:03;6.10;;;2.60;;
20986;SDS011;10652;50.306;8.570;2023-06-14T05:29:06;4.28;;;2.50;;
20986;SDS011;10652;50.306;8.570;2023-06-14T05:33:08;7.13;;;2.80;;
20986;SDS011;10652;50.306;8.570;2023-06-14T05:37:11;5.47;;;3.08;;
20986;SDS011;10652;50.306;8.570;2023-06-14T05:41:13;4.22;;;2.72;;
20986;SDS011;10652;50.306;8.570;2023-06-14T05:45:15;3.80;;;2.78;;
20986;SDS011;10652;50.306;8.570;2023-06-14T05:49:18;7.50;;;2.95;;
20986;SDS011;10652;50.306;8.570;2023-06-14T05:53:20;4.72;;;2.90;;
20986;SDS011;10652;50.306;8.570;2023-06-14T05:57:22;4.25;;;2.63;;
20986;SDS011;10652;50.306;8.570;2023-06-14T06:01:24;5.70;;;2.65;;
20986;SDS011;10652;50.306;8.570;2023-06-14T06:05:27;4.65;;;2.42;;
20986;SDS011;10652;50.306;8.570;2023-06-14T06:09:29;4.07;;;2.90;;
20986;SDS011;10652;50.306;8.570;2023-06-14T06:13:31;3.15;;;2.70;;
20986;SDS011;10652;50.306;8.570;2023-06-14T06:17:34;4.55;;;2.63;;
20986;SDS011;10652;50.306;8.570;2023-06-14T06:21:51;6.13;;;2.83;;
20986;SDS011;10652;50.306;8.570;2023-06-14T06:25:53;3.70;;;2.60;;
20986;SDS011;10652;50.306;8.570;2023-06-14T06:29:55;5.10;;;2.58;;
20986;SDS011;10652;50.306;8.570;2023-06-14T06:33:57;4.97;;;2.25;;
20986;SDS011;10652;50.306;8.570;2023-06-14T06:38:00;2.40;;;2.20;;
20986;SDS011;10652;50.306;8.570;2023-06-14T06:42:03;2.63;;;2.25;;
20986;SDS011;10652;50.306;8.570;2023-06-14T06:46:10;3.63;;;2.22;;
20986;SDS011;10652;50.306;8.570;2023-06-14T06:50:13;3.42;;;2.20;;
20986;SDS011;10652;50.306;8.570;2023-06-14T06:54:15;4.07;;;2.17;;
20986;SDS011;10652;50.306;8.570;2023-06-14T06:58:17;3.95;;;2.30;;
20986;SDS011;10652;50.306;8.570;2023-06-14T07:02:19;5.55;;;2.38;;
20986;SDS011;10652;50.306;8.570;2023-06-14T07:06:21;3.85;;;2.30;;
20986;SDS011;10652;50.306;8.570;2023-06-14T07:10:24;2.58;;;2.25;;
20986;SDS011;10652;50.306;8.570;2023-06-14T07:14:26;2.65;;;2.20;;
20986;SDS011;10652;50.306;8.570;2023-06-14T07:18:28;2.85;;;1.77;;
20986;SDS011;10652;50.306;8.570;2023-06-14T07:22:30;4.55;;;2.13;;
20986;SDS011;10652;50.306;8.570;2023-06-14T07:26:32;3.83;;;1.90;;
20986;SDS011;10652;50.306;8.570;2023-06-14T07:30:35;3.53;;;1.90;;
20986;SDS011;10652;50.306;8.570;2023-06-14T07:34:37;3.67;;;1.90;;
20986;SDS011;10652;50.306;8.570;2023-06-14T07:38:39;4.15;;;1.73;;
20986;SDS011;10652;50.306;8.570;2023-06-14T07:42:42;3.63;;;1.90;;
20986;SDS011;10652;50.306;8.570;2023-06-14T07:46:44;2.72;;;1.90;;
20986;SDS011;10652;50.306;8.570;2023-06-14T07:50:47;2.70;;;1.67;;
20986;SDS011;10652;50.306;8.570;2023-06-14T07:54:50;2.83;;;1.70;;
20986;SDS011;10652;50.306;8.570;2023-06-14T07:58:52;2.67;;;1.80;;
20986;SDS011;10652;50.306;8.570;2023-06-14T08:02:54;3.80;;;1.40;;
20986;SDS011;10652;50.306;8.570;2023-06-14T08:07:02;2.20;;;1.20;;
20986;SDS011;10652;50.306;8.570;2023-06-14T08:11:08;5.40;;;1.50;;
20986;SDS011;10652;50.306;8.570;2023-06-14T08:15:10;3.42;;;1.30;;
20986;SDS011;10652;50.306;8.570;2023-06-14T08:19:15;4.93;;;1.60;;
20986;SDS011;10652;50.306;8.570;2023-06-14T08:23:18;3.92;;;1.73;;
20986;SDS011;10652;50.306;8.570;2023-06-14T08:27:22;6.15;;;2.38;;
20986;SDS011;10652;50.306;8.570;2023-06-14T08:31:24;2.65;;;1.90;;
20986;SDS011;10652;50.306;8.570;2023-06-14T08:35:27;6.72;;;2.25;;
20986;SDS011;10652;50.306;8.570;2023-06-14T08:39:29;1.98;;;1.60;;
20986;SDS011;10652;50.306;8.570;2023-06-14T08:43:31;4.15;;;2.10;;
20986;SDS011;10652;50.306;8.570;2023-06-14T08:47:34;2.80;;;1.55;;
20986;SDS011;10652;50.306;8.570;2023-06-14T08:51:43;3.28;;;1.30;;
20986;SDS011;10652;50.306;8.570;2023-06-14T08:55:45;3.03;;;1.40;;
20986;SDS011;10652;50.306;8.570;2023-06-14T08:59:49;3.50;;;1.42;;
20986;SDS011;10652;50.306;8.570;2023-06-14T09:03:55;3.30;;;1.88;;
20986;SDS011;10652;50.306;8.570;2023-06-14T09:07:59;2.08;;;1.50;;
20986;SDS011;10652;50.306;8.570;2023-06-14T09:12:10;3.95;;;1.60;;
20986;SDS011;10652;50.306;8.570;2023-06-14T09:16:14;1.95;;;1.60;;
20986;SDS011;10652;50.306;8.570;2023-06-14T09:20:16;2.42;;;1.30;;
20986;SDS011;10652;50.306;8.570;2023-06-14T09:24:21;1.75;;;1.15;;
20986;SDS011;10652;50.306;8.570;2023-06-14T09:28:27;2.75;;;1.30;;
20986;SDS011;10652;50.306;8.570;2023-06-14T09:32:29;5.32;;;1.40;;
20986;SDS011;10652;50.306;8.570;2023-06-14T09:36:32;3.85;;;1.30;;
20986;SDS011;10652;50.306;8.570;2023-06-14T09:40:34;3.90;;;1.63;;
20986;SDS011;10652;50.306;8.570;2023-06-14T09:44:38;4.07;;;1.52;;
20986;SDS011;10652;50.306;8.570;2023-06-14T09:48:40;3.78;;;1.50;;
20986;SDS011;10652;50.306;8.570;2023-06-14T09:52:45;2.33;;;1.40;;
20986;SDS011;10652;50.306;8.570;2023-06-14T09:56:53;2.45;;;1.40;;
20986;SDS011;10652;50.306;8.570;2023-06-14T10:00:57;2.97;;;1.48;;
20986;SDS011;10652;50.306;8.570;2023-06-14T10:05:06;2.38;;;1.75;;
20986;SDS011;10652;50.306;8.570;2023-06-14T10:09:11;2.13;;;1.50;;
20986;SDS011;10652;50.306;8.570;2023-06-14T10:13:13;4.75;;;2.03;;
20986;SDS011;10652;50.306;8.570;2023-06-14T10:17:38;2.55;;;1.42;;
20986;SDS011;10652;50.306;8.570;2023-06-14T10:21:57;2.95;;;1.73;;
20986;SDS011;10652;50.306;8.570;2023-06-14T10:26:03;2.88;;;1.38;;
20986;SDS011;10652;50.306;8.570;2023-06-14T10:30:07;1.98;;;1.70;;
20986;SDS011;10652;50.306;8.570;2023-06-14T10:34:10;3.33;;;1.50;;
20986;SDS011;10652;50.306;8.570;2023-06-14T10:38:13;1.70;;;1.45;;
20986;SDS011;10652;50.306;8.570;2023-06-14T10:42:16;4.03;;;1.70;;
20986;SDS011;10652;50.306;8.570;2023-06-14T10:46:18;2.00;;;1.42;;
20986;SDS011;10652;50.306;8.570;2023-06-14T10:50:27;2.30;;;1.50;;
20986;SDS011;10652;50.306;8.570;2023-06-14T10:54:35;2.58;;;1.42;;
20986;SDS011;10652;50.306;8.570;2023-06-14T10:58:37;1.80;;;1.70;;
20986;SDS011;10652;50.306;8.570;2023-06-14T11:02:46;1.65;;;1.42;;
20986;SDS011;10652;50.306;8.570;2023-06-14T11:07:17;2.65;;;1.40;;
20986;SDS011;10652;50.306;8.570;2023-06-14T11:11:24;2.40;;;1.60;;
20986;SDS011;10652;50.306;8.570;2023-06-14T11:15:34;4.18;;;1.58;;
20986;SDS011;10652;50.306;8.570;2023-06-14T11:19:37;6.57;;;2.03;;
20986;SDS011;10652;50.306;8.570;2023-06-14T11:23:39;1.80;;;1.38;;
20986;SDS011;10652;50.306;8.570;2023-06-14T11:27:42;4.30;;;1.52;;
20986;SDS011;10652;50.306;8.570;2023-06-14T11:31:45;2.63;;;1.63;;
20986;SDS011;10652;50.306;8.570;2023-06-14T11:35:47;2.95;;;1.65;;
20986;SDS011;10652;50.306;8.570;2023-06-14T11:39:49;2.15;;;1.50;;
20986;SDS011;10652;50.306;8.570;2023-06-14T11:43:52;2.20;;;1.33;;
20986;SDS011;10652;50.306;8.570;2023-06-14T11:47:55;1.90;;;1.77;;
20986;SDS011;10652;50.306;8.570;2023-06-14T11:51:58;1.80;;;1.70;;
20986;SDS011;10652;50.306;8.570;2023-06-14T11:56:01;2.03;;;1.42;;
20986;SDS011;10652;50.306;8.570;2023-06-14T12:00:04;1.60;;;1.40;;
20986;SDS011;10652;50.306;8.570;2023-06-14T12:04:13;2.35;;;1.20;;
20986;SDS011;10652;50.306;8.570;2023-06-14T12:08:15;2.10;;;1.50;;
20986;SDS011;10652;50.306;8.570;2023-06-14T12:12:22;5.95;;;1.45;;
20986;SDS011;10652;50.306;8.570;2023-06-14T12:16:29;2.13;;;1.33;;
20986;SDS011;10652;50.306;8.570;2023-06-14T12:20:33;1.73;;;1.30;;
20986;SDS011;10652;50.306;8.570;2023-06-14T12:24:36;2.78;;;1.65;;
20986;SDS011;10652;50.306;8.570;2023-06-14T12:28:39;3.10;;;1.40;;
20986;SDS011;10652;50.306;8.570;2023-06-14T12:32:42;2.63;;;1.52;;
20986;SDS011;10652;50.306;8.570;2023-06-14T12:36:46;1.80;;;1.60;;
20986;SDS011;10652;50.306;8.570;2023-06-14T12:40:48;2.85;;;1.30;;
20986;SDS011;10652;50.306;8.570;2023-06-14T12:44:51;2.08;;;1.50;;
20986;SDS011;10652;50.306;8.570;2023-06-14T12:48:53;4.05;;;1.58;;
20986;SDS011;10652;50.306;8.570;2023-06-14T12:52:55;3.50;;;1.60;;
20986;SDS011;10652;50.306;8.570;2023-06-14T12:56:57;1.80;;;1.40;;
20986;SDS011;10652;50.306;8.570;2023-06-14T13:00:59;2.42;;;1.70;;
20986;SDS011;10652;50.306;8.570;2023-06-14T13:05:01;1.45;;;1.35;;
20986;SDS011;10652;50.306;8.570;2023-06-14T13:09:05;2.17;;;1.45;;
20986;SDS011;10652;50.306;8.570;2023-06-14T13:13:07;7.38;;;1.70;;
20986;SDS011;10652;50.306;8.570;2023-06-14T13:17:10;3.70;;;1.58;;
20986;SDS011;10652;50.306;8.570;2023-06-14T13:21:12;2.58;;;1.50;;
20986;SDS011;10652;50.306;8.570;2023-06-14T13:25:14;1.85;;;1.63;;
20986;SDS011;10652;50.306;8.570;2023-06-14T13:29:16;2.47;;;1.60;;
20986;SDS011;10652;50.306;8.570;2023-06-14T13:33:19;5.15;;;1.88;;
20986;SDS011;10652;50.306;8.570;2023-06-14T13:37:21;1.42;;;1.33;;
20986;SDS011;10652;50.306;8.570;2023-06-14T13:41:23;1.92;;;1.50;;
20986;SDS011;10652;50.306;8.570;2023-06-14T13:45:25;2.22;;;1.30;;
20986;SDS011;10652;50.306;8.570;2023-06-14T13:49:27;2.63;;;1.50;;
20986;SDS011;10652;50.306;8.570;2023-06-14T13:53:29;2.88;;;1.52;;
20986;SDS011;10652;50.306;8.570;2023-06-14T13:57:32;2.13;;;1.52;;
20986;SDS011;10652;50.306;8.570;2023-06-14T14:01:34;1.63;;;1.40;;
20986;SDS011;10652;50.306;8.570;2023-06-14T14:05:36;1.83;;;1.70;;
20986;SDS011;10652;50.306;8.570;2023-06-14T14:09:38;1.98;;;1.25;;
20986;SDS011;10652;50.306;8.570;2023-06-14T14:13:41;2.35;;;1.50;;
20986;SDS011;10652;50.306;8.570;2023-06-14T14:17:44;3.03;;;1.40;;
20986;SDS011;10652;50.306;8.570;2023-06-14T14:21:46;3.60;;;1.50;;
20986;SDS011;10652;50.306;8.570;2023-06-14T14:25:48;2.53;;;1.30;;
20986;SDS011;10652;50.306;8.570;2023-06-14T14:29:50;3.70;;;1.70;;
20986;SDS011;10652;50.306;8.570;2023-06-14T14:33:52;2.30;;;1.55;;
20986;SDS011;10652;50.306;8.570;2023-06-14T14:37:54;3.17;;;1.77;;
20986;SDS011;10652;50.306;8.570;2023-06-14T14:41:56;1.88;;;1.60;;
20986;SDS011;10652;50.306;8.570;2023-06-14T14:45:59;2.40;;;1.40;;
20986;SDS011;10652;50.306;8.570;2023-06-14T14:50:01;3.13;;;1.40;;
20986;SDS011;10652;50.306;8.570;2023-06-14T14:54:03;3.38;;;1.50;;
20986;SDS011;10652;50.306;8.570;2023-06-14T14:58:05;2.95;;;1.73;;
20986;SDS011;10652;50.306;8.570;2023-06-14T15:02:08;1.70;;;1.60;;
20986;SDS011;10652;50.306;8.570;2023-06-14T15:06:11;3.60;;;1.50;;
20986;SDS011;10652;50.306;8.570;2023-06-14T15:10:13;1.73;;;1.50;;
20986;SDS011;10652;50.306;8.570;2023-06-14T15:14:16;2.17;;;1.60;;
20986;SDS011;10652;50.306;8.570;2023-06-14T15:18:18;2.65;;;1.70;;
20986;SDS011;10652;50.306;8.570;2023-06-14T15:22:22;1.70;;;1.60;;
20986;SDS011;10652;50.306;8.570;2023-06-14T15:26:24;4.57;;;1.63;;
20986;SDS011;10652;50.306;8.570;2023-06-14T15:30:27;2.00;;;1.77;;
20986;SDS011;10652;50.306;8.570;2023-06-14T15:34:29;1.77;;;1.58;;
20986;SDS011;10652;50.306;8.570;2023-06-14T15:38:31;3.80;;;1.77;;
20986;SDS011;10652;50.306;8.570;2023-06-14T15:42:34;1.92;;;1.63;;
20986;SDS011;10652;50.306;8.570;2023-06-14T15:46:36;1.60;;;1.50;;
20986;SDS011;10652;50.306;8.570;2023-06-14T15:50:38;2.60;;;1.65;;
20986;SDS011;10652;50.306;8.570;2023-06-14T15:54:40;3.67;;;1.70;;
20986;SDS011;10652;50.306;8.570;2023-06-14T15:58:42;2.47;;;1.80;;
20986;SDS011;10652;50.306;8.570;2023-06-14T16:02:44;5.68;;;1.73;;
20986;SDS011;10652;50.306;8.570;2023-06-14T16:06:47;2.05;;;1.85;;
20986;SDS011;10652;50.306;8.570;2023-06-14T16:10:49;1.77;;;1.50;;
20986;SDS011;10652;50.306;8.570;2023-06-14T16:14:53;2.10;;;1.65;;
20986;SDS011;10652;50.306;8.570;2023-06-14T16:18:56;1.92;;;1.70;;
20986;SDS011;10652;50.306;8.570;2023-06-14T16:22:58;3.03;;;1.85;;
20986;SDS011;10652;50.306;8.570;2023-06-14T16:27:00;1.63;;;1.48;;
20986;SDS011;10652;50.306;8.570;2023-06-14T16:31:03;2.53;;;1.70;;
20986;SDS011;10652;50.306;8.570;2023-06-14T16:35:06;1.98;;;1.63;;
20986;SDS011;10652;50.306;8.570;2023-06-14T16:39:08;2.20;;;1.70;;
20986;SDS011;10652;50.306;8.570;2023-06-14T16:43:10;1.85;;;1.75;;
20986;SDS011;10652;50.306;8.570;2023-06-14T16:47:13;4.07;;;1.80;;
20986;SDS011;10652;50.306;8.570;2023-06-14T16:51:15;3.42;;;1.95;;
20986;SDS011;10652;50.306;8.570;2023-06-14T16:55:17;2.50;;;2.05;;
20986;SDS011;10652;50.306;8.570;2023-06-14T16:59:19;2.75;;;1.90;;
20986;SDS011;10652;50.306;8.570;2023-06-14T17:03:21;2.38;;;1.83;;
20986;SDS011;10652;50.306;8.570;2023-06-14T17:07:23;4.30;;;1.67;;
20986;SDS011;10652;50.306;8.570;2023-06-14T17:11:25;3.75;;;1.52;;
20986;SDS011;10652;50.306;8.570;2023-06-14T17:15:27;2.65;;;1.63;;
20986;SDS011;10652;50.306;8.570;2023-06-14T17:19:30;2.15;;;1.80;;
20986;SDS011;10652;50.306;8.570;2023-06-14T17:23:32;3.13;;;1.60;;
20986;SDS011;10652;50.306;8.570;2023-06-14T17:27:35;2.35;;;1.70;;
20986;SDS011;10652;50.306;8.570;2023-06-14T17:31:37;2.08;;;1.77;;
20986;SDS011;10652;50.306;8.570;2023-06-14T17:35:39;3.25;;;1.95;;
20986;SDS011;10652;50.306;8.570;2023-06-14T17:39:41;6.80;;;2.10;;
20986;SDS011;10652;50.306;8.570;2023-06-14T17:43:43;4.50;;;1.77;;
20986;SDS011;10652;50.306;8.570;2023-06-14T17:47:46;5.20;;;1.60;;
20986;SDS011;10652;50.306;8.570;2023-06-14T17:51:49;2.15;;;1.90;;
20986;SDS011;10652;50.306;8.570;2023-06-14T17:55:51;3.22;;;1.73;;
20986;SDS011;10652;50.306;8.570;2023-06-14T17:59:53;2.80;;;1.92;;
20986;SDS011;10652;50.306;8.570;2023-06-14T18:03:58;3.15;;;1.80;;
20986;SDS011;10652;50.306;8.570;2023-06-14T18:08:00;2.70;;;2.00;;
20986;SDS011;10652;50.306;8.570;2023-06-14T18:12:02;3.53;;;1.80;;
20986;SDS011;10652;50.306;8.570;2023-06-14T18:16:05;1.75;;;1.50;;
20986;SDS011;10652;50.306;8.570;2023-06-14T18:20:07;3.03;;;1.88;;
20986;SDS011;10652;50.306;8.570;2023-06-14T18:24:10;3.08;;;1.77;;
20986;SDS011;10652;50.306;8.570;2023-06-14T18:28:13;2.00;;;1.50;;
20986;SDS011;10652;50.306;8.570;2023-06-14T18:32:15;3.83;;;1.55;;
20986;SDS011;10652;50.306;8.570;2023-06-14T18:36:17;4.00;;;1.95;;
20986;SDS011;10652;50.306;8.570;2023-06-14T18:40:21;2.95;;;1.60;;
20986;SDS011;10652;50.306;8.570;2023-06-14T18:44:23;2.50;;;1.63;;
20986;SDS011;10652;50.306;8.570;2023-06-14T18:48:25;1.98;;;1.70;;
20986;SDS011;10652;50.306;8.570;2023-06-14T18:52:27;2.13;;;1.80;;
20986;SDS011;10652;50.306;8.570;2023-06-14T18:56:29;3.00;;;1.65;;
20986;SDS011;10652;50.306;8.570;2023-06-14T19:00:31;2.88;;;2.05;;
20986;SDS011;10652;50.306;8.570;2023-06-14T19:04:34;2.65;;;1.90;;
20986;SDS011;10652;50.306;8.570;2023-06-14T19:08:36;1.90;;;1.70;;
20986;SDS011;10652;50.306;8.570;2023-06-14T19:12:40;2.75;;;1.83;;
20986;SDS011;10652;50.306;8.570;2023-06-14T19:16:42;3.20;;;1.90;;
20986;SDS011;10652;50.306;8.570;2023-06-14T19:20:44;2.67;;;1.80;;
20986;SDS011;10652;50.306;8.570;2023-06-14T19:24:46;2.35;;;1.77;;
20986;SDS011;10652;50.306;8.570;2023-06-14T19:28:48;2.33;;;1.63;;
20986;SDS011;10652;50.306;8.570;2023-06-14T19:32:50;5.00;;;1.95;;
20986;SDS011;10652;50.306;8.570;2023-06-14T19:36:53;1.88;;;1.58;;
20986;SDS011;10652;50.306;8.570;2023-06-14T19:40:55;2.10;;;1.88;;
20986;SDS011;10652;50.306;8.570;2023-06-14T19:44:57;4.65;;;2.10;;
20986;SDS011;10652;50.306;8.570;2023-06-14T19:48:59;1.60;;;1.50;;
20986;SDS011;10652;50.306;8.570;2023-06-14T19:53:02;2.67;;;1.92;;
20986;SDS011;10652;50.306;8.570;2023-06-14T19:57:04;1.92;;;1.77;;
20986;SDS011;10652;50.306;8.570;2023-06-14T20:01:06;2.45;;;1.58;;
20986;SDS011;10652;50.306;8.570;2023-06-14T20:05:09;1.77;;;1.67;;
20986;SDS011;10652;50.306;8.570;2023-06-14T20:09:11;2.35;;;1.73;;
20986;SDS011;10652;50.306;8.570;2023-06-14T20:13:15;2.30;;;1.73;;
20986;SDS011;10652;50.306;8.570;2023-06-14T20:17:17;2.95;;;1.80;;
20986;SDS011;10652;50.306;8.570;2023-06-14T20:21:19;1.83;;;1.67;;
20986;SDS011;10652;50.306;8.570;2023-06-14T20:25:22;2.60;;;1.83;;
20986;SDS011;10652;50.306;8.570;2023-06-14T20:29:24;2.25;;;1.90;;
20986;SDS011;10652;50.306;8.570;2023-06-14T20:33:26;2.42;;;2.00;;
20986;SDS011;10652;50.306;8.570;2023-06-14T20:37:28;2.47;;;1.80;;
20986;SDS011;10652;50.306;8.570;2023-06-14T20:41:30;2.20;;;2.00;;
20986;SDS011;10652;50.306;8.570;2023-06-14T20:45:32;4.22;;;1.90;;
20986;SDS011;10652;50.306;8.570;2023-06-14T20:49:34;1.90;;;1.80;;
20986;SDS011;10652;50.306;8.570;2023-06-14T20:53:37;2.50;;;2.17;;
20986;SDS011;10652;50.306;8.570;2023-06-14T20:57:39;4.07;;;1.90;;
20986;SDS011;10652;50.306;8.570;2023-06-14T21:01:41;1.85;;;1.73;;
20986;SDS011;10652;50.306;8.570;2023-06-14T21:05:44;2.47;;;1.90;;
20986;SDS011;10652;50.306;8.570;2023-06-14T21:09:47;3.30;;;2.00;;
20986;SDS011;10652;50.306;8.570;2023-06-14T21:13:50;3.50;;;2.10;;
20986;SDS011;10652;50.306;8.570;2023-06-14T21:17:54;2.80;;;1.80;;
20986;SDS011;10652;50.306;8.570;2023-06-14T21:21:57;7.38;;;1.83;;
20986;SDS011;10652;50.306;8.570;2023-06-14T21:25:59;3.55;;;2.00;;
20986;SDS011;10652;50.306;8.570;2023-06-14T21:30:01;2.00;;;1.90;;
20986;SDS011;10652;50.306;8.570;2023-06-14T21:34:03;2.95;;;2.03;;
20986;SDS011;10652;50.306;8.570;2023-06-14T21:38:05;2.40;;;2.20;;
20986;SDS011;10652;50.306;8.570;2023-06-14T21:42:08;2.20;;;2.00;;
20986;SDS011;10652;50.306;8.570;2023-06-14T21:46:11;2.97;;;1.98;;
20986;SDS011;10652;50.306;8.570;2023-06-14T21:50:13;6.30;;;2.20;;
20986;SDS011;10652;50.306;8.570;2023-06-14T21:54:16;2.65;;;2.10;;
20986;SDS011;10652;50.306;8.570;2023-06-14T21:58:18;4.25;;;2.03;;
20986;SDS011;10652;50.306;8.570;2023-06-14T22:02:20;2.33;;;2.13;;
20986;SDS011;10652;50.306;8.570;2023-06-14T22:06:22;2.92;;;2.08;;
20986;SDS011;10652;50.306;8.570;2023-06-14T22:10:25;4.22;;;2.33;;
20986;SDS011;10652;50.306;8.570;2023-06-14T22:14:28;4.03;;;2.30;;
20986;SDS011;10652;50.306;8.570;2023-06-14T22:18:31;5.32;;;2.72;;
20986;SDS011;10652;50.306;8.570;2023-06-14T22:22:34;5.10;;;2.38;;
20986;SDS011;10652;50.306;8.570;2023-06-14T22:26:41;2.78;;;2.00;;
20986;SDS011;10652;50.306;8.570;2023-06-14T22:30:48;3.17;;;2.20;;
20986;SDS011;10652;50.306;8.570;2023-06-14T22:34:51;3.85;;;2.35;;
20986;SDS011;10652;50.306;8.570;2023-06-14T22:38:53;2.40;;;2.20;;
20986;SDS011;10652;50.306;8.570;2023-06-14T22:42:55;2.42;;;2.17;;
20986;SDS011;10652;50.306;8.570;2023-06-14T22:46:59;3.67;;;2.22;;
20986;SDS011;10652;50.306;8.570;2023-06-14T22:51:02;2.45;;;2.25;;
20986;SDS011;10652;50.306;8.570;2023-06-14T22:55:04;4.72;;;2.00;;
20986;SDS011;10652;50.306;8.570;2023-06-14T22:59:06;2.60;;;2.17;;
20986;SDS011;10652;50.306;8.570;2023-06-14T23:03:09;3.63;;;2.08;;
20986;SDS011;10652;50.306;8.570;2023-06-14T23:07:15;3.38;;;2.17;;
20986;SDS011;10652;50.306;8.570;2023-06-14T23:11:17;2.53;;;2.17;;
20986;SDS011;10652;50.306;8.570;2023-06-14T23:15:20;4.88;;;2.35;;
20986;SDS011;10652;50.306;8.570;2023-06-14T23:19:23;4.57;;;2.20;;
20986;SDS011;10652;50.306;8.570;2023-06-14T23:23:27;5.22;;;2.53;;
20986;SDS011;10652;50.306;8.570;2023-06-14T23:27:30;3.47;;;2.10;;
20986;SDS011;10652;50.306;8.570;2023-06-14T23:31:34;2.20;;;2.00;;
20986;SDS011;10652;50.306;8.570;2023-06-14T23:35:36;3.95;;;2.70;;
20986;SDS011;10652;50.306;8.570;2023-06-14T23:39:39;3.67;;;2.67;;
20986;SDS011;10652;50.306;8.570;2023-06-14T23:43:50;2.70;;;2.50;;
20986;SDS011;10652;50.306;8.570;2023-06-14T23:47:53;3.13;;;2.45;;
20986;SDS011;10652;50.306;8.570;2023-06-14T23:51:55;2.67;;;2.47;;
20986;SDS011;10652;50.306;8.570;2023-06-14T23:55:59;3.65;;;2.55;;
